Time;durP1;ratioP1;P1;durP2;ratioP2;P2;SDS_P1;SDS_P2;PMS_P1;PMS_P2;Temp;Humidity;BMP_temperature;BMP_pressure;BME280_temperature;BME280_humidity;BME280_pressure;Samples;Min_cycle;Max_cycle;Signal;HPM_P1;HPM_P2
2021/08/31 00:00:14;;;;;;;23.00;13.27;;;22.50;51.40;;;26.54;34.38;101851.91;5094758;28;20044;-17
2021/08/31 00:02:40;;;;;;;21.58;12.88;;;22.50;51.40;;;26.51;34.38;101841.41;5074916;28;20544;-17
2021/08/31 00:05:09;;;;;;;22.85;14.50;;;22.50;51.40;;;26.52;34.51;101845.81;5094813;28;20052;-17
2021/08/31 00:07:35;;;;;;;23.80;13.55;;;22.50;51.40;;;26.52;34.42;101842.28;5094331;28;20127;-17
2021/08/31 00:10:01;;;;;;;23.58;13.80;;;22.50;51.40;;;26.52;34.33;101844.97;5094438;28;20101;-17
2021/08/31 00:12:27;;;;;;;21.73;13.65;;;22.50;51.40;;;26.51;34.39;101837.88;5094530;28;20481;-18
2021/08/31 00:14:52;;;;;;;23.35;13.18;;;22.50;51.40;;;26.54;34.15;101851.91;5094719;28;20048;-18
2021/08/31 00:17:18;;;;;;;21.42;12.77;;;22.50;51.40;;;26.51;34.49;101845.91;5094142;28;20486;-17
2021/08/31 00:19:45;;;;;;;22.30;13.05;;;22.50;51.40;;;26.50;34.51;101841.53;5094010;28;20048;-17
2021/08/31 00:22:11;;;;;;;27.35;13.75;;;22.50;51.40;;;26.50;34.41;101838.88;5094289;28;20051;-17
2021/08/31 00:24:37;;;;;;;20.85;13.68;;;22.50;51.40;;;26.54;34.47;101838.50;5073943;28;20425;-17
2021/08/31 00:27:02;;;;;;;21.83;13.20;;;22.40;51.40;;;26.48;34.56;101836.28;5094385;28;20181;-17
2021/08/31 00:29:28;;;;;;;24.10;15.07;;;22.40;51.40;;;26.53;34.37;101843.97;5094009;28;20056;-17
2021/08/31 00:31:54;;;;;;;22.95;13.00;;;22.50;51.40;;;26.48;34.33;101836.28;5094129;28;20370;-18
2021/08/31 00:34:20;;;;;;;21.40;12.45;;;22.40;51.40;;;26.51;34.33;101844.09;5094327;28;20040;-17
2021/08/31 00:36:46;;;;;;;21.05;12.32;;;22.40;51.40;;;26.53;34.37;101846.66;5093944;28;20051;-17
2021/08/31 00:39:12;;;;;;;20.35;13.43;;;22.40;51.40;;;26.49;34.49;101842.50;5093697;28;20054;-17
2021/08/31 00:41:38;;;;;;;22.65;14.18;;;22.40;51.40;;;26.51;34.24;101841.41;5076194;28;20079;-17
2021/08/31 00:44:05;;;;;;;22.20;13.65;;;22.50;51.40;;;26.48;34.43;101838.97;5093914;28;20043;-17
2021/08/31 00:46:31;;;;;;;23.00;13.45;;;22.50;51.40;;;26.48;34.24;101851.50;5093739;28;20040;-17
2021/08/31 00:48:57;;;;;;;24.20;13.85;;;22.40;51.40;;;26.51;34.31;101852.13;5093803;28;20455;-17
2021/08/31 00:51:24;;;;;;;17.58;11.45;;;22.40;51.40;;;26.47;34.23;101847.13;5094080;28;20044;-17
2021/08/31 00:53:51;;;;;;;21.80;13.60;;;22.40;51.40;;;26.48;34.45;101846.13;5092647;28;20050;-18
2021/08/31 00:56:19;;;;;;;21.92;13.27;;;22.40;51.40;;;26.50;34.25;101847.75;5093689;28;20127;-17
2021/08/31 00:58:46;;;;;;;22.45;13.02;;;22.40;51.40;;;26.47;34.22;101847.13;5093563;28;20505;-17
2021/08/31 01:01:11;;;;;;;23.38;13.43;;;22.40;51.30;;;26.52;34.34;101858.38;5093574;28;20131;-17
2021/08/31 01:03:40;;;;;;;21.20;14.07;;;22.50;51.40;;;26.51;34.41;101859.31;5093569;28;20390;-17
2021/08/31 01:06:07;;;;;;;20.65;12.57;;;22.40;51.40;;;26.46;34.47;101848.91;5093495;28;20055;-17
2021/08/31 01:08:33;;;;;;;22.30;13.07;;;22.40;51.40;;;26.47;34.32;101847.97;5073794;28;20060;-17
2021/08/31 01:11:00;;;;;;;21.45;13.48;;;22.40;51.40;;;26.47;34.37;101856.00;5093969;28;20044;-17
2021/08/31 01:13:29;;;;;;;20.73;12.13;;;22.40;51.30;;;26.51;34.31;101867.38;5075065;28;20083;-17
2021/08/31 01:15:55;;;;;;;18.25;12.50;;;22.40;51.30;;;26.46;34.37;101858.78;5092029;28;20059;-18
2021/08/31 01:18:23;;;;;;;18.50;12.25;;;22.40;51.40;;;26.49;34.33;101858.59;5093608;28;20055;-17
2021/08/31 01:20:54;;;;;;;18.05;12.48;;;22.40;51.30;;;26.46;34.41;101861.47;5093231;28;20050;-17
2021/08/31 01:23:21;;;;;;;20.33;12.88;;;22.40;51.40;;;26.47;34.43;101860.53;5093559;28;20052;-17
2021/08/31 01:25:47;;;;;;;21.02;12.93;;;22.40;51.40;;;26.50;34.49;101871.03;5075461;28;20044;-18
2021/08/31 01:28:19;;;;;;;20.73;11.65;;;22.40;51.30;;;26.47;34.41;101861.38;5093501;28;20181;-17
2021/08/31 01:30:50;;;;;;;19.05;12.02;;;22.40;51.40;;;26.46;34.35;101859.66;5093033;28;20440;-17
2021/08/31 01:33:17;;;;;;;21.80;13.40;;;22.40;51.30;;;26.45;34.53;101860.63;5093349;28;20134;-17
2021/08/31 01:35:43;;;;;;;19.42;12.75;;;22.40;51.40;;;26.43;34.50;101852.69;5091680;28;20055;-17
2021/08/31 01:38:09;;;;;;;21.17;12.23;;;22.40;51.30;;;26.44;34.37;101856.22;5093253;28;20123;-17
2021/08/31 01:40:35;;;;;;;27.15;13.02;;;22.40;51.40;;;26.44;34.29;101857.06;5092982;28;20096;-17
2021/08/31 01:43:00;;;;;;;20.48;12.70;;;22.40;51.40;;;26.47;34.14;101858.69;5093019;28;20138;-17
2021/08/31 01:45:26;;;;;;;17.98;11.13;;;22.40;51.40;;;26.47;34.36;101860.53;5074811;28;20052;-17
2021/08/31 01:47:52;;;;;;;17.98;11.73;;;22.40;51.40;;;26.41;34.31;101848.38;5092881;28;20048;-17
2021/08/31 01:50:18;;;;;;;15.88;11.30;;;22.40;51.40;;;26.43;34.33;101854.53;5092883;28;20048;-17
2021/08/31 01:52:44;;;;;;;20.90;11.95;;;22.40;51.30;;;26.43;34.30;101858.06;5092795;28;20127;-17
2021/08/31 01:55:10;;;;;;;18.25;11.38;;;22.40;51.40;;;26.46;34.21;101859.66;5092824;28;20052;-17
2021/08/31 01:57:38;;;;;;;17.35;11.38;;;22.40;51.40;;;26.46;34.44;101861.47;5074926;28;20402;-17
2021/08/31 02:00:05;;;;;;;19.50;12.07;;;22.40;51.30;;;26.44;34.30;101861.59;5092371;28;20420;-17
2021/08/31 02:02:38;;;;;;;17.77;10.65;;;22.40;51.30;;;26.47;34.51;101858.69;5092806;28;20094;-17
2021/08/31 02:05:04;;;;;;;16.67;10.95;;;22.40;51.40;;;26.43;34.34;101851.84;5092523;28;20056;-17
2021/08/31 02:07:30;;;;;;;17.30;11.90;;;22.40;51.40;;;26.41;34.34;101849.25;5092434;28;20109;-17
2021/08/31 02:09:56;;;;;;;16.33;10.82;;;22.40;51.30;;;26.46;34.37;101856.13;5092511;28;20052;-17
2021/08/31 02:12:22;;;;;;;19.65;11.75;;;22.40;51.30;;;26.46;34.35;101853.44;5092351;28;20052;-17
2021/08/31 02:14:48;;;;;;;17.73;11.20;;;22.40;51.30;;;26.46;34.23;101856.97;5092459;28;20054;-17
2021/08/31 02:17:14;;;;;;;18.27;11.50;;;22.40;51.30;;;26.40;34.17;101846.69;5092545;28;20048;-18
2021/08/31 02:19:40;;;;;;;13.68;9.90;;;22.40;51.30;;;26.41;34.27;101857.31;5093812;28;20501;-17
2021/08/31 02:22:06;;;;;;;16.95;10.93;;;22.40;51.40;;;26.43;34.23;101855.38;5096352;28;20044;-17
2021/08/31 02:24:32;;;;;;;19.70;10.60;;;22.30;51.20;;;26.41;34.27;101848.38;5096139;28;20056;-17
2021/08/31 02:26:57;;;;;;;17.75;10.75;;;22.40;51.30;;;26.43;34.21;101860.72;5095978;28;20074;-18
2021/08/31 02:29:25;;;;;;;19.45;11.23;;;22.40;51.40;;;26.40;34.28;101850.22;5095820;28;20097;-17
2021/08/31 02:31:51;;;;;;;16.60;11.40;;;22.40;51.30;;;26.39;34.30;101847.63;5095974;28;20127;-17
2021/08/31 02:34:17;;;;;;;14.68;10.10;;;22.30;51.30;;;26.43;34.19;101860.72;5096272;28;20451;-17
2021/08/31 02:36:43;;;;;;;19.45;11.18;;;22.40;51.30;;;26.40;34.23;101846.69;5095942;28;20047;-17
2021/08/31 02:39:09;;;;;;;18.73;10.73;;;22.40;51.30;;;26.38;34.43;101854.84;5095941;28;20052;-17
2021/08/31 02:41:35;;;;;;;15.52;10.50;;;22.30;51.30;;;26.41;34.34;101857.31;5095846;28;20048;-17
2021/08/31 02:44:00;;;;;;;14.88;11.13;;;22.40;51.90;;;26.40;34.32;101858.25;5095831;28;20131;-17
2021/08/31 02:46:26;;;;;;;15.70;10.48;;;22.40;51.30;;;26.43;34.39;101859.88;5096302;28;20044;-17
2021/08/31 02:48:52;;;;;;;17.83;10.70;;;22.40;51.30;;;26.37;34.30;101852.25;5095648;28;20153;-17
2021/08/31 02:51:18;;;;;;;16.80;10.40;;;22.30;51.30;;;26.41;34.31;101860.00;5095712;28;20397;-17
2021/08/31 02:53:43;;;;;;;16.85;11.38;;;22.30;51.80;;;26.39;34.46;101861.91;5077567;28;20048;-17
2021/08/31 02:56:09;;;;;;;15.30;9.73;;;22.30;51.30;;;26.39;34.36;101853.84;5095589;28;20501;-17
2021/08/31 02:58:35;;;;;;;14.95;10.43;;;22.30;51.30;;;26.41;34.22;101856.44;5095423;28;20382;-17
2021/08/31 03:01:04;;;;;;;16.95;10.15;;;22.30;51.30;;;26.38;34.27;101865.56;5095540;28;20097;-17
2021/08/31 03:03:32;;;;;;;18.50;10.90;;;22.30;51.30;;;26.41;34.34;101865.34;5095512;28;20105;-17
2021/08/31 03:05:58;;;;;;;15.70;10.88;;;22.30;51.30;;;26.40;34.21;101862.78;5094737;28;20044;-17
2021/08/31 03:08:25;;;;;;;14.95;9.77;;;22.30;51.30;;;26.40;34.29;101868.13;5095528;28;20059;-17
2021/08/31 03:10:50;;;;;;;16.42;10.23;;;22.30;51.30;;;26.36;34.44;101854.09;5095271;28;20048;-17
2021/08/31 03:13:18;;;;;;;12.13;8.75;;;22.30;51.30;;;26.41;34.32;101869.84;5095676;28;20051;-17
2021/08/31 03:15:43;;;;;;;14.25;10.02;;;22.30;51.80;;;26.38;34.20;101859.31;5095237;28;20044;-17
2021/08/31 03:18:09;;;;;;;15.57;9.95;;;22.30;51.30;;;26.41;34.49;101872.50;5095463;28;20044;-17
2021/08/31 03:20:35;;;;;;;14.43;9.65;;;22.30;51.30;;;26.41;34.22;101864.47;5095173;28;20048;-17
2021/08/31 03:23:01;;;;;;;13.60;9.25;;;22.30;51.30;;;26.34;34.44;101855.16;5095228;28;20051;-17
2021/08/31 03:25:26;;;;;;;14.10;9.73;;;22.30;51.30;;;26.37;34.23;101855.78;5095173;28;20055;-17
2021/08/31 03:27:52;;;;;;;14.43;10.10;;;22.30;51.30;;;26.39;34.17;101864.56;5094769;28;20055;-17
2021/08/31 03:30:20;;;;;;;14.43;9.98;;;22.30;51.30;;;26.36;34.25;101854.09;5095210;28;20059;-17
2021/08/31 03:32:46;;;;;;;13.20;9.23;;;22.30;51.30;;;26.38;34.27;101856.63;5095006;28;20116;-17
2021/08/31 03:35:12;;;;;;;12.77;8.93;;;22.30;51.20;;;26.37;34.32;101849.56;5095000;28;20504;-17
2021/08/31 03:37:38;;;;;;;15.35;10.07;;;22.30;51.30;;;26.36;34.35;101850.53;5095445;28;20098;-17
2021/08/31 03:40:04;;;;;;;16.15;9.95;;;22.30;51.30;;;26.35;34.43;101854.19;5094673;28;20084;-17
2021/08/31 03:42:30;;;;;;;15.85;10.38;;;22.30;51.30;;;26.32;34.28;101849.03;5094659;28;20183;-18
2021/08/31 03:44:56;;;;;;;13.75;10.02;;;22.30;51.30;;;26.31;34.25;101850.88;5094954;28;20048;-17
2021/08/31 03:47:22;;;;;;;15.63;9.48;;;22.30;51.30;;;26.38;34.28;101849.47;5091474;28;20052;-17
2021/08/31 03:49:48;;;;;;;14.32;10.23;;;22.30;51.30;;;26.37;34.20;101855.78;5094714;28;20097;-17
2021/08/31 03:52:14;;;;;;;14.02;9.32;;;22.30;51.30;;;26.32;34.41;101854.41;5094744;28;20044;-17
2021/08/31 03:54:39;;;;;;;14.93;9.73;;;22.30;51.30;;;26.38;34.26;101868.25;5094587;28;20060;-17
2021/08/31 03:57:05;;;;;;;12.13;8.98;;;22.30;51.30;;;26.35;34.21;101863.09;5094654;28;20044;-17
2021/08/31 03:59:31;;;;;;;13.80;8.93;;;22.30;51.30;;;26.36;34.35;101858.56;5094350;28;20101;-17
2021/08/31 04:01:57;;;;;;;13.70;8.60;;;22.30;51.30;;;26.35;34.25;101862.25;5094641;28;20386;-17
2021/08/31 04:04:23;;;;;;;15.25;9.57;;;22.30;51.30;;;26.37;34.20;101876.38;5094533;28;20056;-17
2021/08/31 04:06:48;;;;;;;15.30;9.48;;;22.30;51.30;;;26.33;34.25;101865.03;5094534;28;20090;-17
2021/08/31 04:09:14;;;;;;;12.88;8.88;;;22.30;51.30;;;26.32;34.23;101870.50;5094367;28;20048;-17
2021/08/31 04:11:40;;;;;;;13.20;8.32;;;22.30;51.30;;;26.36;34.17;101880.03;5094353;28;20074;-18
2021/08/31 04:14:05;;;;;;;16.48;9.07;;;22.30;51.30;;;26.34;34.39;101876.59;5094697;28;20413;-17
2021/08/31 04:16:31;;;;;;;11.38;8.63;;;22.30;51.30;;;26.37;34.39;101889.81;5094852;28;20052;-17
2021/08/31 04:18:57;;;;;;;13.07;8.82;;;22.30;51.30;;;26.32;34.27;101884.75;5094308;28;20056;-17
2021/08/31 04:21:23;;;;;;;13.75;8.65;;;22.30;51.30;;;26.32;34.31;101879.38;5094280;28;20041;-17
2021/08/31 04:23:49;;;;;;;14.25;8.77;;;22.30;51.30;;;26.35;34.34;101881.00;5094136;28;20482;-17
2021/08/31 04:26:14;;;;;;;12.38;8.95;;;22.30;51.30;;;26.31;34.27;101879.50;5094523;28;20040;-17
2021/08/31 04:28:40;;;;;;;12.70;9.00;;;22.30;51.30;;;26.34;34.31;101887.31;5076032;28;20052;-17
2021/08/31 04:31:06;;;;;;;12.25;8.02;;;22.30;51.30;;;26.32;34.26;101883.91;5093920;28;20058;-17
2021/08/31 04:33:32;;;;;;;15.30;9.02;;;22.30;51.30;;;26.30;34.15;101877.78;5094304;28;20043;-17
2021/08/31 04:35:57;;;;;;;11.38;8.07;;;22.30;51.30;;;26.36;34.29;101896.13;5074281;28;20048;-17
2021/08/31 04:38:23;;;;;;;16.45;8.40;;;22.30;51.20;;;26.32;34.20;101891.94;5094227;28;20081;-17
2021/08/31 04:40:49;;;;;;;12.38;8.73;;;22.30;51.30;;;26.34;34.25;101900.72;5093974;28;20044;-18
2021/08/31 04:43:14;;;;;;;14.10;8.68;;;22.30;51.20;;;26.28;34.24;101885.94;5093211;28;20054;-17
2021/08/31 04:45:40;;;;;;;12.65;8.65;;;22.30;51.20;;;26.33;34.22;101894.53;5094113;28;20051;-17
2021/08/31 04:48:06;;;;;;;11.48;7.47;;;22.30;51.20;;;26.38;34.14;101902.22;5093794;28;20040;-17
2021/08/31 04:50:32;;;;;;;12.48;8.05;;;22.30;51.10;;;26.36;34.42;101893.44;5094044;28;20478;-17
2021/08/31 04:52:57;;;;;;;12.20;8.50;;;22.30;51.10;;;26.38;34.32;101908.47;5093947;28;20504;-17
2021/08/31 04:55:23;;;;;;;11.45;8.38;;;22.40;51.10;;;26.37;34.07;101900.53;5093695;28;20508;-17
2021/08/31 04:57:50;;;;;;;12.30;7.97;;;22.40;51.00;;;26.40;34.02;101903.84;5093995;28;20390;-17
2021/08/31 05:00:16;;;;;;;12.25;8.55;;;22.40;50.90;;;26.43;34.19;101902.78;5093497;28;20048;-17
2021/08/31 05:02:42;;;;;;;10.70;7.45;;;22.40;50.80;;;26.46;34.33;101909.75;5093531;28;20040;-17
2021/08/31 05:05:08;;;;;;;11.27;7.85;;;22.50;50.80;;;26.49;34.05;101904.19;5092275;28;20131;-17
2021/08/31 05:07:34;;;;;;;11.90;7.53;;;22.50;50.70;;;26.46;34.04;101894.50;5093568;28;20051;-17
2021/08/31 05:10:00;;;;;;;18.02;8.27;;;22.50;50.50;;;26.47;34.08;101896.25;5093419;28;20055;-17
2021/08/31 05:12:26;;;;;;;13.00;8.63;;;22.50;50.80;;;26.49;34.19;101912.22;5093504;28;20071;-17
2021/08/31 05:14:52;;;;;;;14.57;10.25;;;22.40;51.50;;;26.38;34.43;101896.84;5093601;28;20532;-18
2021/08/31 05:17:18;;;;;;;20.98;12.05;;;22.30;52.40;;;26.39;34.88;101910.16;5093132;28;20044;-18
2021/08/31 05:19:44;;;;;;;23.02;12.35;;;22.30;53.30;;;26.39;35.07;101912.84;5093291;28;20051;-18
2021/08/31 05:22:10;;;;;;;20.67;8.48;;;22.40;53.10;;;26.42;35.39;101917.16;5093519;28;20050;-17
2021/08/31 05:24:37;;;;;;;20.50;6.78;;;22.40;53.90;;;26.45;35.46;101916.94;5093271;28;20044;-17
2021/08/31 05:27:03;;;;;;;15.02;7.68;;;22.50;53.60;;;26.45;35.14;101916.94;5093139;28;20130;-17
2021/08/31 05:29:29;;;;;;;15.05;7.32;;;22.50;52.40;;;26.41;35.17;101924.34;5093031;28;20631;-17
2021/08/31 05:31:55;;;;;;;12.40;7.25;;;22.30;52.90;;;26.31;35.13;101912.53;5093128;28;20105;-18
2021/08/31 05:34:20;;;;;;;11.68;6.80;;;22.00;52.90;;;26.21;35.08;101922.16;5093629;28;20047;-17
2021/08/31 05:36:46;;;;;;;13.23;7.35;;;21.90;53.30;;;26.14;35.21;101923.53;5093054;28;20101;-17
2021/08/31 05:39:12;;;;;;;11.07;6.00;;;21.80;53.20;;;26.06;35.25;101921.34;5092896;28;20040;-17
2021/08/31 05:41:37;;;;;;;9.73;6.57;;;21.80;53.40;;;26.00;35.25;101928.00;5092852;28;20044;-17
2021/08/31 05:44:03;;;;;;;11.65;7.18;;;21.60;53.60;;;25.88;35.26;101929.66;5092894;28;20052;-17
2021/08/31 05:46:30;;;;;;;9.38;6.50;;;21.40;54.20;;;25.78;35.63;101933.03;5093217;28;20119;-17
2021/08/31 05:48:55;;;;;;;9.60;6.57;;;21.40;54.20;;;25.75;35.56;101930.56;5092986;28;20137;-17
2021/08/31 05:51:21;;;;;;;9.82;7.53;;;21.40;54.20;;;25.63;35.63;101925.03;5092741;28;20482;-17
2021/08/31 05:53:47;;;;;;;8.10;6.55;;;21.30;54.30;;;25.61;35.80;101916.25;5091628;28;20098;-17
2021/08/31 05:56:12;;;;;;;8.20;6.60;;;21.40;54.30;;;25.64;35.79;101929.44;5074811;28;20101;-17
2021/08/31 05:58:38;;;;;;;9.82;6.50;;;21.60;54.00;;;25.65;35.87;101919.59;5092563;28;20396;-17
2021/08/31 06:01:04;;;;;;;8.65;5.50;;;21.60;53.80;;;25.59;35.78;101918.16;5092522;28;20548;-17
2021/08/31 06:03:30;;;;;;;14.55;7.38;;;21.50;54.40;;;25.60;35.94;101927.91;5093139;28;20097;-17
2021/08/31 06:05:55;;;;;;;8.07;6.75;;;21.50;54.50;;;25.65;35.93;101931.16;5092871;28;20044;-17
2021/08/31 06:08:22;;;;;;;9.55;6.68;;;21.50;54.10;;;25.62;36.00;101931.34;5092424;28;20073;-18
2021/08/31 06:10:48;;;;;;;10.07;6.45;;;21.60;53.90;;;25.71;36.05;101935.25;5092833;28;20497;-17
2021/08/31 06:13:14;;;;;;;7.07;5.85;;;21.80;53.70;;;25.76;36.17;101934.94;5092611;28;20044;-17
2021/08/31 06:15:39;;;;;;;10.68;7.18;;;21.90;53.60;;;25.82;35.85;101940.75;5092498;28;20054;-17
2021/08/31 06:18:05;;;;;;;10.15;6.60;;;21.90;53.40;;;25.79;35.94;101935.59;5073496;28;20041;-17
2021/08/31 06:20:31;;;;;;;8.85;6.75;;;21.80;53.70;;;25.86;35.91;101939.63;5092462;28;20052;-17
2021/08/31 06:22:57;;;;;;;11.38;6.70;;;21.90;53.40;;;25.91;35.98;101946.47;5092448;28;20484;-17
2021/08/31 06:25:22;;;;;;;9.50;6.43;;;21.90;53.70;;;25.90;36.05;101942.94;5074190;28;20093;-17
2021/08/31 06:27:49;;;;;;;10.70;6.20;;;21.90;54.00;;;25.84;36.10;101938.84;5092408;28;20048;-17
2021/08/31 06:30:15;;;;;;;10.30;6.90;;;21.90;54.00;;;25.91;36.06;101960.75;5092907;28;20072;-17
2021/08/31 06:32:41;;;;;;;11.57;7.53;;;22.00;53.90;;;25.87;36.25;101945.81;5074171;28;20044;-17
2021/08/31 06:35:07;;;;;;;7.43;5.75;;;21.90;54.00;;;25.91;36.15;101955.38;5092127;28;20379;-17
2021/08/31 06:37:33;;;;;;;10.00;5.60;;;22.00;54.00;;;25.93;36.10;101960.63;5092068;28;20204;-17
2021/08/31 06:39:58;;;;;;;13.32;6.88;;;22.00;54.30;;;25.85;36.34;101948.59;5091958;28;20485;-17
2021/08/31 06:42:24;;;;;;;26.17;7.60;;;21.90;54.50;;;25.85;36.34;101948.59;5092129;28;20502;-17
2021/08/31 06:44:50;;;;;;;20.35;8.48;;;21.90;54.60;;;25.94;36.45;101955.16;5092109;28;20494;-17
2021/08/31 06:47:15;;;;;;;27.58;8.75;;;22.10;54.90;;;25.93;36.56;101952.59;5092040;28;20461;-17
2021/08/31 06:49:41;;;;;;;26.67;9.30;;;22.00;54.50;;;25.95;36.67;101956.03;5092015;28;20421;-17
2021/08/31 06:52:07;;;;;;;25.67;9.88;;;22.10;54.50;;;25.94;36.67;101946.28;5092324;28;20044;-17
2021/08/31 06:54:33;;;;;;;17.27;8.65;;;22.20;54.50;;;26.02;36.70;101950.19;5091829;28;20048;-17
2021/08/31 06:57:00;;;;;;;23.13;8.82;;;22.10;54.40;;;26.05;36.71;101958.03;5092261;28;20134;-19
2021/08/31 06:59:25;;;;;;;20.25;7.97;;;22.30;54.30;;;26.09;36.72;101947.09;5091683;28;20048;-17
2021/08/31 07:01:51;;;;;;;23.70;10.10;;;22.40;54.30;;;26.13;36.70;101946.81;5092007;28;20048;-17
2021/08/31 07:04:17;;;;;;;25.85;10.23;;;22.50;54.00;;;26.21;36.57;101957.88;5091915;28;20040;-17
2021/08/31 07:06:43;;;;;;;25.90;8.73;;;22.40;54.50;;;26.18;36.72;101949.19;5094953;28;20052;-17
2021/08/31 07:09:08;;;;;;;19.85;7.47;;;22.30;54.40;;;26.18;36.72;101949.19;5093990;28;20161;-17
2021/08/31 07:11:34;;;;;;;18.60;7.60;;;22.30;54.50;;;26.23;36.74;101950.59;5095629;28;20474;-17
2021/08/31 07:14:00;;;;;;;18.58;8.18;;;22.50;54.20;;;26.31;37.00;101951.88;5094018;28;20378;-17
2021/08/31 07:16:25;;;;;;;14.38;7.88;;;22.60;54.40;;;26.28;36.91;101949.41;5095281;28;20485;-17
2021/08/31 07:18:51;;;;;;;9.93;6.90;;;22.40;54.70;;;26.24;36.81;101948.75;5095522;28;20048;-17
2021/08/31 07:21:17;;;;;;;13.27;7.13;;;22.30;55.20;;;26.25;36.99;101951.34;5095161;28;20096;-17
2021/08/31 07:23:43;;;;;;;13.63;6.78;;;22.30;55.90;;;26.25;37.02;101951.34;5095420;28;20059;-17
2021/08/31 07:26:09;;;;;;;10.98;6.03;;;22.50;55.10;;;26.30;37.08;101956.38;5095173;28;20086;-17
2021/08/31 07:28:34;;;;;;;10.98;7.15;;;22.60;55.00;;;26.39;37.46;101952.22;5095573;28;20173;-17
2021/08/31 07:31:00;;;;;;;9.38;5.95;;;22.60;55.40;;;26.37;37.12;101956.84;5094934;28;20044;-17
2021/08/31 07:33:26;;;;;;;9.07;6.13;;;22.50;55.10;;;26.35;37.09;101953.41;5094960;28;20048;-17
2021/08/31 07:35:51;;;;;;;12.02;6.43;;;22.60;55.00;;;26.41;37.19;101958.31;5095174;28;20059;-17
2021/08/31 07:38:17;;;;;;;13.18;6.53;;;22.60;55.20;;;26.45;37.37;101965.22;5095117;28;20864;-18
2021/08/31 07:40:43;;;;;;;10.65;6.03;;;22.60;55.20;;;26.42;37.49;101952.88;5094786;28;20058;-17
2021/08/31 07:43:09;;;;;;;12.20;6.78;;;22.70;55.20;;;26.51;37.25;101963.94;5095160;28;20048;-17
2021/08/31 07:45:35;;;;;;;16.45;6.75;;;22.60;55.40;;;-147.20;100.00;58430.41;5076650;28;20471;-17
2021/08/31 07:48:01;;;;;;;16.25;7.03;;;22.80;55.30;;;26.51;37.53;101961.25;5092956;28;20047;-17
2021/08/31 07:50:27;;;;;;;11.93;7.10;;;22.70;55.60;;;26.49;37.73;101953.31;5095081;28;20044;-17
2021/08/31 07:52:53;;;;;;;12.95;7.30;;;22.60;55.90;;;-147.20;100.00;58430.41;5094703;28;20101;-18
2021/08/31 07:55:20;;;;;;;11.80;5.85;;;22.60;55.70;;;26.51;37.77;101969.28;5094493;28;20044;-17
2021/08/31 07:57:46;;;;;;;14.80;6.72;;;22.80;55.60;;;26.55;37.64;101974.34;5094518;28;20052;-17
2021/08/31 08:00:15;;;;;;;14.60;6.78;;;22.80;55.50;;;26.58;37.65;101984.88;5090559;28;20044;-17
2021/08/31 08:02:42;;;;;;;15.25;6.40;;;22.90;55.30;;;26.58;37.47;101974.16;5093213;28;20075;-17
2021/08/31 08:05:10;;;;;;;15.60;6.72;;;23.00;55.40;;;26.64;37.61;101980.94;5094495;28;20066;-17
2021/08/31 08:07:39;;;;;;;14.75;6.00;;;22.90;55.50;;;26.64;37.79;101982.75;5094305;28;20131;-17
2021/08/31 08:10:06;;;;;;;10.88;5.70;;;22.70;55.70;;;26.66;37.83;101986.19;5093018;28;20052;-17
2021/08/31 08:12:32;;;;;;;9.05;6.10;;;22.70;55.80;;;26.62;37.58;101989.06;5094271;28;20074;-17
2021/08/31 08:14:59;;;;;;;12.30;6.35;;;22.70;55.50;;;26.68;37.72;101987.81;5093950;28;20048;-17
2021/08/31 08:17:25;;;;;;;16.73;6.65;;;22.80;55.70;;;-147.20;100.00;58430.41;5093032;28;20062;-19
2021/08/31 08:19:51;;;;;;;13.95;5.78;;;22.80;55.70;;;26.63;37.47;101998.00;5093866;28;20127;-17
2021/08/31 08:22:18;;;;;;;11.88;5.78;;;22.90;55.20;;;26.63;37.47;101998.00;5094090;28;20044;-17
2021/08/31 08:24:44;;;;;;;10.63;5.22;;;22.90;55.00;;;26.68;37.25;101995.88;5075980;28;20464;-17
2021/08/31 08:27:10;;;;;;;7.05;5.18;;;22.70;55.10;;;26.66;37.14;101996.94;5094086;28;20052;-18
2021/08/31 08:29:37;;;;;;;11.15;5.80;;;22.70;54.40;;;26.65;36.91;102001.44;5094034;28;20062;-17
2021/08/31 08:32:12;;;;;;;16.25;5.72;;;22.70;54.10;;;26.57;36.76;101991.19;5093676;28;20051;-17
2021/08/31 08:34:39;;;;;;;10.48;5.45;;;22.70;53.90;;;26.52;36.45;102000.53;5093776;28;20079;-17
2021/08/31 08:37:05;;;;;;;8.32;5.38;;;22.50;54.40;;;26.51;36.80;101994.28;5094197;28;20051;-17
2021/08/31 08:39:32;;;;;;;8.02;4.88;;;22.50;54.10;;;26.52;36.67;102013.94;5093823;28;20044;-17
2021/08/31 08:41:58;;;;;;;6.40;4.70;;;22.60;53.80;;;26.49;36.41;102001.59;5093803;28;20047;-17
2021/08/31 08:44:28;;;;;;;7.25;4.70;;;22.50;53.70;;;-147.20;100.00;58430.41;5093811;28;20050;-17
2021/08/31 08:46:55;;;;;;;8.05;4.88;;;22.50;53.80;;;26.46;36.45;101999.09;5093715;28;20136;-17
2021/08/31 08:49:21;;;;;;;7.40;4.80;;;22.60;53.50;;;26.49;36.13;102001.59;5093992;28;20438;-17
2021/08/31 08:51:47;;;;;;;7.47;5.18;;;22.70;53.40;;;26.55;36.09;102011.91;5093785;28;20131;-18
2021/08/31 08:54:13;;;;;;;5.72;4.43;;;22.70;52.80;;;26.55;35.91;102011.06;5075864;28;20501;-18
2021/08/31 08:56:39;;;;;;;7.85;4.28;;;22.70;52.70;;;-147.20;100.00;58430.41;5093694;28;20097;-17
2021/08/31 08:59:05;;;;;;;8.30;5.10;;;22.60;53.00;;;-147.20;100.00;58430.41;5093349;28;20048;-19
2021/08/31 09:01:44;;;;;;;10.40;4.78;;;22.60;52.30;;;-147.20;100.00;58430.41;5093484;28;20048;-18
2021/08/31 09:04:11;;;;;;;8.80;4.38;;;22.50;53.20;;;-147.20;100.00;58430.41;5093523;28;20040;-18
2021/08/31 09:06:37;;;;;;;8.70;5.20;;;22.60;53.00;;;-147.20;100.00;58430.41;5093390;28;20053;-18
2021/08/31 09:09:06;;;;;;;6.07;4.07;;;22.70;52.60;;;-147.20;100.00;58430.41;5093486;28;20048;-17
2021/08/31 09:11:45;;;;;;;9.88;4.80;;;22.80;52.40;;;-147.20;100.00;58430.41;5093409;28;20516;-18
2021/08/31 09:14:33;;;;;;;13.73;5.20;;;22.90;52.20;;;-147.20;100.00;58430.41;5093429;28;20051;-16
2021/08/31 09:17:07;;;;;;;10.73;4.13;;;22.90;52.20;;;-147.20;100.00;58430.41;5093238;28;20535;-18
2021/08/31 09:19:44;;;;;;;11.00;4.75;;;23.00;52.20;;;-147.20;100.00;58430.41;5093173;28;20051;-18
2021/08/31 09:22:24;;;;;;;8.82;5.22;;;23.00;52.10;;;-147.20;100.00;58430.41;5093623;28;20040;-18
2021/08/31 09:25:12;;;;;;;12.03;5.03;;;23.00;52.10;;;-147.20;100.00;58430.41;5090722;28;20102;-18
2021/08/31 09:27:44;;;;;;;11.43;4.85;;;23.00;52.00;;;-147.20;100.00;58430.41;5092748;28;20044;-18
2021/08/31 09:30:20;;;;;;;12.48;5.22;;;23.00;52.00;;;-147.20;100.00;58430.41;5093392;28;20504;-19
2021/08/31 09:33:15;;;;;;;8.90;4.57;;;23.10;52.00;;;-147.20;100.00;58430.41;5093062;28;20051;-18
2021/08/31 09:35:44;;;;;;;9.98;4.72;;;23.10;51.90;;;-147.20;100.00;58430.41;5093272;28;20040;-18
2021/08/31 09:38:16;;;;;;;13.15;4.85;;;23.10;51.80;;;-147.20;100.00;58430.41;5092742;28;20052;-18
2021/08/31 09:40:50;;;;;;;8.05;4.45;;;23.10;51.90;;;-147.20;100.00;58430.41;5093227;28;20143;-18
2021/08/31 09:43:20;;;;;;;9.40;4.72;;;23.10;51.80;;;-147.20;100.00;58430.41;5093276;28;20367;-19
2021/08/31 09:45:49;;;;;;;13.68;5.03;;;23.10;51.80;;;-147.20;100.00;58430.41;5092079;28;20047;-18
2021/08/31 09:48:19;;;;;;;15.02;4.80;;;23.20;51.70;;;-147.20;100.00;58430.41;5092638;28;20067;-18
2021/08/31 09:50:49;;;;;;;8.50;4.63;;;23.20;51.70;;;-147.20;100.00;58430.41;5091909;28;20396;-18
2021/08/31 09:53:18;;;;;;;10.80;5.18;;;23.20;51.60;;;-147.20;100.00;58430.41;5092874;28;20093;-18
2021/08/31 09:55:47;;;;;;;14.68;4.75;;;23.20;51.90;;;-147.20;100.00;58430.41;5091574;28;20401;-18
2021/08/31 09:58:21;;;;;;;13.35;4.70;;;23.20;51.90;;;-147.20;100.00;58430.41;5092638;28;20044;-18
2021/08/31 10:00:49;;;;;;;16.70;5.25;;;23.20;51.80;;;-147.20;100.00;58430.41;5092742;28;20052;-18